Terminal Aerodrome Forecast
Issued by NWS

Home | Current Version | Previous Version | Text Only | Print | Product List | Glossary On
Versions: 1 2 3 4 5 6 7 8 9 10 11 12 13 14 15 16 17 18 19
000
FTUS43 KPAH 212324
TAFCGI
TAF
KCGI 212324Z 2200/2224 17011G18KT P6SM OVC020
      TEMPO 2200/2203 SCT020 BKN070
     FM220300 17014G23KT P6SM OVC035
     FM220900 17018G30KT 6SM SHRA OVC035
     FM221300 17017G28KT P6SM VCSH OVC020
     FM221600 20017G32KT P6SM SCT060=

USA.gov is the U.S. government's official web portal to all federal, state and local government web resources and services.